Aérodrome :
LOGIN :

S'inscrire | Disclaimer

   EN    FR    IT 

 










Légende :    VFR   VFR Marginal   IFR   IFR Intensif   IFR Très Intensif
Visi : 
Plafond : 
>= 8 km
>= 3000ft
5 à 8 km
1000 à 3000 ft
1500m à 5 km
500 à 1000 ft
800 à 1500m
200 à 500 ft
< 800m
< 200 ft
Symboles :   Orages  Brouillard  Fortes neiges  Fortes précipitations  Vent > 20 kt
SIGMETs :   Divers  Orages  Givrage  Turbulence  Onde Orograph.  Cendres Volcan.






- Altitude de l'aérodrome : 32 ft
- Code IATA : LKZ


EGUL - RAF Lakenheath

DERNIER METAR :
  • 130755Z AUTO 28009KT 9999 SCT010 13/11 A2991 RMK AO2 DZB10E31 SLP132 P0000 T01290106 FZRANO $

METARs EXPIRÉS :
  • 130731Z AUTO 29008KT 9999 FEW010 SCT024 12/10 A2990 RMK AO2 DZB10E31 SLP129 FZRANO $
  • 130726Z AUTO 28008KT 9999 -DZ FEW010 SCT024 13/10 A2991 RMK AO2 DZB10 SLP132 FZRANO $
  • 130710Z AUTO 29008KT 9999 -DZ SCT025 SCT030 12/10 A2991 RMK AO2 DZB10 SLP132 FZRANO $
  • 130700Z AUTO 30008KT 9999 FEW008 BKN028 12/10 A2991 RMK AO2 SLP132 FZRANO $
  • 130648Z AUTO 28006KT 9999 FEW008 SCT030 12/10 A2991 RMK AO2 SLP132 FZRANO $
  • 130628Z AUTO 28007KT 9999 FEW008 SCT019 SCT031 12/10 A2991 RMK AO2 SLP132 FZRANO $
  • 130613Z AUTO 28006KT 9999 FEW008 SCT020 BKN030 13/11 A2991 RMK AO2 SLP132 FZRANO $
  • 130555Z AUTO 28008KT 9999 BKN031 BKN110 12/11 A2991 RMK AO2 RAE01DZB08E23 SLP132 P0001 60010 T01230105 10123 20102 57006 FZRANO $
  • 130523Z AUTO 28008KT 9999 FEW070 12/10 A2991 RMK AO2 RAE01DZB08E23 SLP132 FZRANO $
  • 130508Z AUTO 28008KT 9999 -DZ CLR 12/10 A2991 RMK AO2 RAE01DZB08 SLP132 FZRANO $
  • 130455Z AUTO 28008KT 9999 -RA FEW080 12/10 A2991 RMK AO2 DZE02RAB02E12DZB12E16DZB21E38RAB38 SLP132 P0000 T01170103 FZRANO $
  • 130421Z AUTO 28005KT 9999 -DZ FEW027 FEW080 12/11 A2992 RMK AO2 DZE02RAB02E12DZB12E16DZB21 SLP135 FZRANO $
  • 130355Z AUTO 27006KT 9999 -DZ SCT021 11/10 A2992 RMK AO2 DZB19E28DZB32 SLP135 P0000 T01140100 FZRANO $
  • 130328Z AUTO 27007KT 9999 CLR 10/09 A2992 RMK AO2 DZB19E28 SLP135 FZRANO $
  • 130321Z AUTO 27007KT 9999 -DZ FEW005 FEW060 11/09 A2992 RMK AO2 DZB19 SLP135 FZRANO $

TAF TAF EGUL
Valide du 12 à 16h jusqu'au 13 à 19h UTC


121600Z 1216/1319 01010G20KT 9999 SCT015 BKN030 QNH2999INS
TEMPO 1217/1219 9000 -SHRA SCT020 BKN035
BECMG 1219/1220 33010G15KT 8000 -SHRA SCT010 BKN020 QNH2990INS
TEMPO 1221/1223 6000 SHRA SCT008 BKN015
BECMG 1305/1306 31010G20KT 9999 NSW SCT010 BKN020 OVC040 QNH2989INS
BECMG 1312/1313 29015KT 9999 SCT020 BKN040 QNH2988INS TX17/1213Z TN11/1302Z LAST NO AMDS AFT 1216 NEXT 1505



MET'MAP, la Météo Aéronautique d'un coup d'oeil ! - Copyright ORBIFLY Décembre 2007 - Disclaimer

ORBIFLY MET'MAP TEAM :

Programmation & Développement : Alexandra Zaïnal
Sur une idée originale de : Baudouin d'Aumeries
Soutien technique & logistique : Manuel Goepfert
Assistance : Marc-Olivier Méhu




SOURCES & CREDITS :

   NOAA